createdAt,value
2018-09-08T00:01:09.389Z,14.70
2018-09-08T00:03:36.828Z,14.80
2018-09-08T00:06:04.320Z,14.80
2018-09-08T00:08:31.698Z,14.90
2018-09-08T00:10:59.179Z,15.00
2018-09-08T00:13:26.546Z,15.10
2018-09-08T00:15:59.465Z,15.00
2018-09-08T00:18:32.445Z,15.00
2018-09-08T00:21:05.720Z,15.00
2018-09-08T00:23:38.715Z,14.90
2018-09-08T00:26:11.824Z,15.10
2018-09-08T00:28:41.394Z,15.00
2018-09-08T00:31:17.894Z,15.00
2018-09-08T00:33:45.801Z,15.00
2018-09-08T00:36:13.149Z,15.00
2018-09-08T00:38:40.828Z,15.00
2018-09-08T00:41:08.234Z,15.00
2018-09-08T00:43:35.623Z,15.00
2018-09-08T00:46:03.019Z,15.10
2018-09-08T00:48:30.460Z,14.90
2018-09-08T00:50:58.122Z,14.90
2018-09-08T00:53:25.546Z,14.90
2018-09-08T00:55:52.942Z,14.80
2018-09-08T00:58:20.338Z,14.80
2018-09-08T01:00:47.730Z,14.80
2018-09-08T01:03:15.222Z,14.70
2018-09-08T01:05:42.566Z,14.80
2018-09-08T01:08:09.933Z,14.90
2018-09-08T01:10:37.333Z,14.90
2018-09-08T01:13:04.865Z,14.90
2018-09-08T01:15:32.317Z,14.90
2018-09-08T01:17:59.696Z,14.90
2018-09-08T01:20:27.021Z,15.00
2018-09-08T01:22:54.410Z,15.00
2018-09-08T01:25:21.729Z,14.90
2018-09-08T01:27:49.169Z,14.90
2018-09-08T01:30:16.641Z,14.90
2018-09-08T01:32:44.239Z,14.90
2018-09-08T01:35:11.631Z,15.00
2018-09-08T01:37:39.065Z,15.00
2018-09-08T01:40:07.251Z,15.00
2018-09-08T01:42:34.673Z,15.10
2018-09-08T01:45:02.112Z,15.00
2018-09-08T01:47:29.441Z,15.00
2018-09-08T01:49:56.905Z,15.10
2018-09-08T01:52:24.267Z,15.10
2018-09-08T01:54:51.682Z,15.30
2018-09-08T01:57:19.187Z,15.20
2018-09-08T01:59:46.563Z,15.10
2018-09-08T02:02:13.957Z,15.20
2018-09-08T02:04:41.383Z,15.00
2018-09-08T02:07:08.769Z,15.10
2018-09-08T02:09:36.223Z,15.10
2018-09-08T02:12:03.691Z,15.00
2018-09-08T02:14:31.035Z,15.00
2018-09-08T02:16:58.407Z,15.00
2018-09-08T02:19:25.767Z,14.90
2018-09-08T02:21:53.079Z,14.90
2018-09-08T02:24:20.459Z,15.00
2018-09-08T02:26:47.881Z,15.00
2018-09-08T02:29:15.341Z,15.10
2018-09-08T02:31:42.679Z,15.10
2018-09-08T02:34:10.036Z,15.10
2018-09-08T02:36:37.353Z,15.10
2018-09-08T02:39:06.761Z,15.10
2018-09-08T02:41:34.193Z,15.20
2018-09-08T02:44:01.564Z,15.10
2018-09-08T02:46:28.901Z,15.10
2018-09-08T02:48:56.213Z,15.10
2018-09-08T02:51:22.603Z,15.10
2018-09-08T02:53:48.960Z,15.10
2018-09-08T02:56:15.291Z,15.10
2018-09-08T02:58:41.635Z,15.10
2018-09-08T03:01:08.041Z,15.20
2018-09-08T03:03:34.457Z,15.20
2018-09-08T03:06:00.869Z,15.00
2018-09-08T03:08:27.232Z,14.90
2018-09-08T03:10:53.591Z,14.90
2018-09-08T03:13:19.949Z,15.00
2018-09-08T03:15:46.318Z,14.90
2018-09-08T03:18:12.715Z,14.90
2018-09-08T03:20:39.042Z,15.00
2018-09-08T03:23:05.346Z,15.00
2018-09-08T03:25:31.718Z,15.00
2018-09-08T03:27:58.077Z,15.00
2018-09-08T03:30:24.453Z,15.00
2018-09-08T03:32:50.840Z,15.00
2018-09-08T03:35:17.232Z,15.00
2018-09-08T03:37:43.653Z,14.90
2018-09-08T03:40:10.064Z,14.70
2018-09-08T03:42:36.417Z,14.80
2018-09-08T03:45:02.831Z,14.80
2018-09-08T03:47:29.161Z,14.80
2018-09-08T03:49:55.566Z,14.60
2018-09-08T03:52:21.937Z,14.60
2018-09-08T03:54:48.293Z,14.60
2018-09-08T03:57:14.663Z,14.60
2018-09-08T03:59:41.049Z,14.60
2018-09-08T04:02:07.414Z,14.60
2018-09-08T04:04:34.853Z,14.60
2018-09-08T04:07:02.297Z,14.60
2018-09-08T04:09:29.731Z,14.60
2018-09-08T04:11:57.162Z,14.70
2018-09-08T04:14:24.623Z,14.60
2018-09-08T04:16:52.037Z,14.70
2018-09-08T04:19:19.375Z,14.60
2018-09-08T04:21:46.817Z,14.60
2018-09-08T04:24:14.194Z,14.60
2018-09-08T04:26:41.581Z,14.60
2018-09-08T04:29:08.945Z,14.50
2018-09-08T04:31:36.273Z,14.60
2018-09-08T04:34:03.607Z,14.60
2018-09-08T04:36:31.009Z,14.60
2018-09-08T04:38:58.391Z,14.60
2018-09-08T04:41:25.773Z,14.70
2018-09-08T04:43:53.149Z,14.70
2018-09-08T04:46:20.493Z,14.70
2018-09-08T04:48:47.807Z,14.70
2018-09-08T04:51:15.180Z,14.60
2018-09-08T04:53:42.515Z,14.60
2018-09-08T04:56:09.881Z,14.70
2018-09-08T04:58:37.267Z,14.70
2018-09-08T05:01:05.025Z,14.70
2018-09-08T05:03:32.505Z,14.70
2018-09-08T05:05:59.895Z,14.70
2018-09-08T05:08:27.373Z,14.70
2018-09-08T05:10:54.753Z,14.70
2018-09-08T05:13:22.211Z,14.70
2018-09-08T05:15:49.797Z,14.60
2018-09-08T05:18:17.143Z,14.70
2018-09-08T05:20:44.543Z,14.80
2018-09-08T05:23:11.887Z,14.80
2018-09-08T05:25:39.196Z,14.70
2018-09-08T05:28:06.522Z,14.70
2018-09-08T05:30:33.900Z,14.60
2018-09-08T05:33:01.254Z,14.60
2018-09-08T05:35:28.671Z,14.60
2018-09-08T05:37:56.135Z,14.60
2018-09-08T05:40:23.490Z,14.60
2018-09-08T05:42:50.850Z,14.70
2018-09-08T05:45:18.147Z,14.70
2018-09-08T05:47:45.565Z,14.70
2018-09-08T05:50:13.203Z,14.80
2018-09-08T05:52:40.523Z,14.80
2018-09-08T05:55:07.919Z,15.00
2018-09-08T05:57:35.420Z,15.10
2018-09-08T06:00:03.025Z,15.10
2018-09-08T06:02:30.465Z,15.20
2018-09-08T06:04:57.771Z,15.20
2018-09-08T06:07:25.087Z,15.30
2018-09-08T06:09:52.460Z,15.40
2018-09-08T06:12:19.730Z,15.50
2018-09-08T06:14:47.130Z,15.60
2018-09-08T06:17:14.552Z,15.50
2018-09-08T06:19:41.962Z,15.40
2018-09-08T06:22:09.344Z,15.30
2018-09-08T06:24:36.624Z,15.40
2018-09-08T06:27:04.030Z,15.40
2018-09-08T06:29:31.413Z,15.40
2018-09-08T06:31:58.800Z,15.30
2018-09-08T06:34:26.150Z,15.40
2018-09-08T06:36:53.590Z,15.40
2018-09-08T06:39:21.096Z,15.50
2018-09-08T06:41:48.534Z,15.60
2018-09-08T06:44:15.966Z,15.60
2018-09-08T06:46:43.382Z,15.70
2018-09-08T06:49:10.886Z,15.70
2018-09-08T06:51:38.284Z,15.60
2018-09-08T06:54:05.601Z,15.80
2018-09-08T06:56:32.930Z,15.80
2018-09-08T06:59:00.797Z,15.90
2018-09-08T07:01:28.163Z,15.90
2018-09-08T07:03:55.572Z,16.00
2018-09-08T07:06:22.858Z,15.90
2018-09-08T07:08:50.261Z,15.90
2018-09-08T07:11:17.654Z,15.80
2018-09-08T07:13:45.086Z,15.80
2018-09-08T07:16:12.517Z,15.80
2018-09-08T07:18:39.823Z,15.80
2018-09-08T07:21:07.278Z,15.80
2018-09-08T07:23:34.699Z,15.90
2018-09-08T07:26:02.517Z,16.10
2018-09-08T07:28:30.600Z,16.40
2018-09-08T07:30:58.011Z,16.70
2018-09-08T07:33:25.381Z,16.90
2018-09-08T07:35:52.959Z,16.50
2018-09-08T07:38:20.255Z,16.70
2018-09-08T07:40:47.672Z,16.90
2018-09-08T07:43:14.992Z,17.30
2018-09-08T07:45:42.381Z,17.50
2018-09-08T07:48:09.800Z,17.60
2018-09-08T07:50:37.237Z,17.60
2018-09-08T07:53:04.662Z,17.30
2018-09-08T07:55:32.213Z,17.20
2018-09-08T07:57:59.758Z,17.20
2018-09-08T08:00:27.102Z,17.30
2018-09-08T08:02:54.624Z,17.20
2018-09-08T08:05:22.065Z,17.30
2018-09-08T08:07:49.388Z,17.70
2018-09-08T08:10:16.757Z,17.90
2018-09-08T08:12:44.276Z,18.00
2018-09-08T08:15:11.695Z,18.20
2018-09-08T08:17:39.054Z,18.10
2018-09-08T08:20:06.576Z,17.80
2018-09-08T08:22:33.987Z,17.70
2018-09-08T08:25:01.437Z,17.60
2018-09-08T08:27:28.851Z,17.70
2018-09-08T08:29:56.333Z,17.90
2018-09-08T08:32:23.646Z,17.80
2018-09-08T08:34:51.082Z,17.80
2018-09-08T08:37:18.621Z,17.70
2018-09-08T08:39:46.054Z,18.00
2018-09-08T08:42:13.410Z,17.90
2018-09-08T08:44:40.871Z,18.20
2018-09-08T08:47:08.297Z,18.60
2018-09-08T08:49:35.779Z,18.80
2018-09-08T08:52:14.658Z,18.90
2018-09-08T08:54:44.134Z,19.30
2018-09-08T08:57:11.561Z,19.40
2018-09-08T08:59:39.058Z,19.50
2018-09-08T09:02:06.439Z,19.50
2018-09-08T09:04:33.763Z,19.10
2018-09-08T09:07:01.282Z,18.60
2018-09-08T09:09:28.747Z,18.40
2018-09-08T09:11:56.326Z,18.40
2018-09-08T09:14:23.574Z,18.40
2018-09-08T09:16:50.921Z,18.60
2018-09-08T09:19:35.982Z,18.90
2018-09-08T09:22:16.205Z,19.10
2018-09-08T09:24:48.925Z,19.40
2018-09-08T09:27:15.970Z,19.90
2018-09-08T09:29:43.342Z,19.80
2018-09-08T09:32:10.714Z,19.70
2018-09-08T09:34:38.284Z,19.70
2018-09-08T09:37:05.662Z,19.90
2018-09-08T09:39:33.018Z,20.00
2018-09-08T09:42:00.454Z,20.00
2018-09-08T09:44:27.746Z,20.20
2018-09-08T09:46:55.149Z,20.50
2018-09-08T09:49:22.546Z,20.80
2018-09-08T09:51:49.904Z,20.70
2018-09-08T09:54:17.245Z,20.50
2018-09-08T09:56:44.739Z,20.30
2018-09-08T09:59:12.130Z,20.10
2018-09-08T10:01:43.079Z,20.10
2018-09-08T10:04:11.196Z,20.20
2018-09-08T10:06:38.640Z,20.80
2018-09-08T10:09:06.704Z,20.70
2018-09-08T10:11:34.240Z,20.60
2018-09-08T10:14:01.645Z,21.10
2018-09-08T10:16:29.089Z,21.50
2018-09-08T10:18:56.782Z,21.50
2018-09-08T10:21:24.307Z,21.60
2018-09-08T10:24:04.348Z,21.30
2018-09-08T10:26:19.130Z,21.40
2018-09-08T10:28:46.463Z,21.10
2018-09-08T10:31:13.782Z,21.20
2018-09-08T10:33:41.103Z,21.10
2018-09-08T10:36:08.462Z,21.50
2018-09-08T10:38:35.857Z,21.90
2018-09-08T10:41:03.288Z,22.20
2018-09-08T10:43:30.671Z,21.90
2018-09-08T10:45:58.057Z,21.70
2018-09-08T10:48:25.554Z,21.30
2018-09-08T10:50:53.104Z,21.50
2018-09-08T10:53:20.406Z,21.80
2018-09-08T10:55:47.821Z,22.00
2018-09-08T10:58:15.213Z,22.10
2018-09-08T11:00:42.646Z,22.40
2018-09-08T11:03:10.010Z,22.60
2018-09-08T11:05:37.481Z,22.80
2018-09-08T11:08:04.921Z,22.80
2018-09-08T11:10:32.271Z,23.10
2018-09-08T11:12:59.684Z,23.20
2018-09-08T11:15:27.063Z,22.70
2018-09-08T11:17:54.424Z,22.60
2018-09-08T11:20:21.821Z,22.40
2018-09-08T11:22:49.237Z,22.50
2018-09-08T11:25:16.635Z,22.30
2018-09-08T11:27:44.066Z,22.60
2018-09-08T11:30:11.527Z,22.30
2018-09-08T11:32:38.821Z,22.40
2018-09-08T11:35:06.310Z,22.50
2018-09-08T11:37:33.690Z,22.10
2018-09-08T11:40:01.182Z,22.60
2018-09-08T11:42:28.660Z,22.90
2018-09-08T11:44:56.155Z,23.10
2018-09-08T11:47:23.512Z,23.40
2018-09-08T11:49:50.841Z,23.70
2018-09-08T11:52:18.310Z,23.70
2018-09-08T11:54:45.627Z,23.90
2018-09-08T11:57:13.027Z,23.00
2018-09-08T11:59:40.446Z,22.90
2018-09-08T12:02:07.859Z,22.90
2018-09-08T12:04:35.208Z,22.60
2018-09-08T12:07:02.579Z,22.90
2018-09-08T12:09:29.914Z,23.40
2018-09-08T12:11:57.295Z,23.30
2018-09-08T12:14:24.743Z,23.60
2018-09-08T12:16:52.134Z,23.90
2018-09-08T12:19:19.486Z,24.20
2018-09-08T12:21:46.892Z,23.80
2018-09-08T12:24:14.305Z,23.90
2018-09-08T12:26:41.735Z,23.40
2018-09-08T12:29:09.102Z,23.40
2018-09-08T12:31:36.589Z,23.60
2018-09-08T12:34:04.026Z,23.90
2018-09-08T12:36:31.502Z,23.70
2018-09-08T12:38:59.049Z,23.40
2018-09-08T12:41:26.386Z,23.90
2018-09-08T12:43:53.801Z,23.90
2018-09-08T12:46:21.318Z,24.40
2018-09-08T12:48:48.713Z,24.20
2018-09-08T12:51:16.095Z,24.40
2018-09-08T12:53:43.638Z,24.20
2018-09-08T12:56:10.986Z,24.20
2018-09-08T12:58:38.553Z,24.50
2018-09-08T13:01:06.027Z,24.40
2018-09-08T13:03:33.479Z,24.90
2018-09-08T13:06:01.020Z,24.60
2018-09-08T13:08:28.485Z,25.00
2018-09-08T13:10:56.036Z,25.40
2018-09-08T13:13:23.443Z,24.80
2018-09-08T13:15:50.957Z,24.60
2018-09-08T13:18:18.353Z,24.50
2018-09-08T13:20:45.933Z,24.20
2018-09-08T13:23:13.429Z,24.40
2018-09-08T13:25:40.877Z,24.80
2018-09-08T13:28:08.331Z,25.00
2018-09-08T13:30:35.758Z,25.00
2018-09-08T13:33:03.108Z,25.20
2018-09-08T13:35:30.459Z,25.30
2018-09-08T13:37:57.849Z,25.50
2018-09-08T13:40:25.236Z,25.70
2018-09-08T13:42:52.681Z,25.50
2018-09-08T13:45:20.237Z,25.60
2018-09-08T13:47:47.583Z,25.60
2018-09-08T13:50:15.022Z,25.20
2018-09-08T13:52:42.483Z,24.80
2018-09-08T13:55:09.881Z,24.30
2018-09-08T13:57:37.431Z,24.30
2018-09-08T14:00:06.080Z,24.30
2018-09-08T14:02:33.581Z,25.00
2018-09-08T14:05:01.032Z,25.10
2018-09-08T14:07:28.515Z,25.00
2018-09-08T14:09:56.105Z,24.90
2018-09-08T14:12:23.515Z,24.50
2018-09-08T14:14:50.954Z,24.40
2018-09-08T14:17:18.436Z,24.50
2018-09-08T14:19:45.975Z,24.70
2018-09-08T14:22:13.362Z,24.80
2018-09-08T14:24:40.699Z,24.60
2018-09-08T14:27:08.087Z,25.30
2018-09-08T14:29:35.439Z,24.70
2018-09-08T14:32:02.808Z,25.00
2018-09-08T14:34:30.203Z,25.70
2018-09-08T14:36:57.565Z,26.00
2018-09-08T14:39:25.092Z,26.40
2018-09-08T14:41:52.582Z,26.20
2018-09-08T14:44:20.024Z,26.30
2018-09-08T14:46:47.369Z,26.90
2018-09-08T14:49:14.760Z,27.90
2018-09-08T14:51:42.083Z,28.40
2018-09-08T14:54:09.530Z,29.60
2018-09-08T14:56:36.967Z,29.90
2018-09-08T14:59:04.500Z,29.00
2018-09-08T15:01:31.888Z,27.60
2018-09-08T15:03:59.292Z,26.60
2018-09-08T15:06:26.798Z,25.90
2018-09-08T15:08:54.290Z,25.20
2018-09-08T15:11:21.875Z,24.70
2018-09-08T15:13:49.234Z,24.40
2018-09-08T15:16:16.749Z,24.20
2018-09-08T15:18:44.190Z,23.90
2018-09-08T15:21:11.834Z,23.80
2018-09-08T15:23:39.193Z,23.70
2018-09-08T15:26:06.550Z,23.40
2018-09-08T15:28:34.058Z,23.50
2018-09-08T15:31:01.624Z,23.50
2018-09-08T15:33:29.001Z,23.70
2018-09-08T15:35:56.427Z,23.80
2018-09-08T15:38:24.034Z,23.70
2018-09-08T15:40:51.637Z,23.70
2018-09-08T15:43:19.130Z,23.80
2018-09-08T15:45:46.520Z,23.70
2018-09-08T15:48:13.908Z,23.80
2018-09-08T15:50:41.311Z,23.70
2018-09-08T15:53:08.723Z,23.60
2018-09-08T15:55:36.012Z,23.40
2018-09-08T15:58:03.468Z,23.40
2018-09-08T16:00:31.037Z,23.40
2018-09-08T16:02:58.887Z,23.40
2018-09-08T16:05:26.328Z,23.40
2018-09-08T16:07:53.811Z,23.00
2018-09-08T16:10:21.283Z,23.10
2018-09-08T16:12:48.635Z,23.00
2018-09-08T16:15:16.172Z,22.80
2018-09-08T16:17:43.645Z,22.80
2018-09-08T16:20:11.177Z,22.80
2018-09-08T16:22:38.632Z,22.70
2018-09-08T16:25:06.053Z,22.50
2018-09-08T16:27:33.449Z,22.50
2018-09-08T16:30:00.945Z,22.50
2018-09-08T16:32:28.422Z,22.40
2018-09-08T16:34:55.813Z,22.40
2018-09-08T16:37:23.305Z,22.40
2018-09-08T16:39:50.743Z,22.30
2018-09-08T16:42:18.099Z,22.40
2018-09-08T16:44:45.459Z,22.30
2018-09-08T16:47:12.897Z,22.30
2018-09-08T16:49:40.381Z,22.20
2018-09-08T16:52:07.992Z,22.10
2018-09-08T16:54:35.390Z,22.00
2018-09-08T16:57:02.905Z,21.90
2018-09-08T16:59:30.439Z,21.80
2018-09-08T17:01:57.819Z,21.80
2018-09-08T17:04:25.360Z,21.80
2018-09-08T17:06:52.884Z,21.60
2018-09-08T17:09:20.264Z,21.60
2018-09-08T17:11:47.616Z,21.60
2018-09-08T17:14:15.083Z,21.50
2018-09-08T17:16:42.454Z,21.40
2018-09-08T17:19:09.829Z,21.30
2018-09-08T17:21:37.325Z,21.30
2018-09-08T17:24:04.770Z,21.20
2018-09-08T17:26:32.175Z,21.10
2018-09-08T17:28:59.620Z,21.00
2018-09-08T17:31:27.030Z,20.90
2018-09-08T17:33:54.413Z,20.80
2018-09-08T17:36:21.763Z,20.70
2018-09-08T17:38:49.321Z,20.60
2018-09-08T17:41:16.709Z,20.60
2018-09-08T17:43:44.115Z,20.50
2018-09-08T17:46:11.464Z,20.40
2018-09-08T17:48:38.914Z,20.20
2018-09-08T17:51:06.332Z,20.20
2018-09-08T17:53:33.761Z,20.10
2018-09-08T17:56:01.188Z,20.00
2018-09-08T17:58:28.625Z,19.90
2018-09-08T18:00:56.151Z,19.80
2018-09-08T18:03:23.470Z,19.80
2018-09-08T18:05:50.918Z,19.60
2018-09-08T18:08:18.878Z,19.50
2018-09-08T18:10:46.430Z,19.50
2018-09-08T18:13:14.172Z,19.40
2018-09-08T18:15:41.554Z,19.30
2018-09-08T18:18:09.566Z,19.20
2018-09-08T18:20:36.839Z,19.10
2018-09-08T18:23:04.175Z,19.00
2018-09-08T18:25:31.622Z,19.00
2018-09-08T18:27:59.082Z,18.80
2018-09-08T18:30:26.447Z,18.70
2018-09-08T18:32:53.974Z,18.70
2018-09-08T18:35:21.416Z,18.70
2018-09-08T18:37:48.945Z,18.60
2018-09-08T18:40:16.342Z,18.50
2018-09-08T18:42:43.763Z,18.40
2018-09-08T18:45:11.227Z,18.30
2018-09-08T18:47:38.704Z,18.30
2018-09-08T18:50:06.141Z,18.20
2018-09-08T18:52:33.544Z,18.20
2018-09-08T18:55:01.015Z,18.20
2018-09-08T18:57:28.449Z,18.10
2018-09-08T18:59:55.855Z,18.10
2018-09-08T19:02:23.227Z,18.00
2018-09-08T19:04:50.753Z,18.00
2018-09-08T19:07:18.184Z,17.90
2018-09-08T19:09:50.118Z,17.80
2018-09-08T19:12:17.505Z,17.80
2018-09-08T19:14:50.514Z,17.60
2018-09-08T19:17:17.995Z,17.50
2018-09-08T19:19:45.498Z,17.50
2018-09-08T19:22:13.307Z,17.50
2018-09-08T19:24:43.096Z,17.40
2018-09-08T19:27:10.794Z,17.30
2018-09-08T19:29:43.776Z,17.20
2018-09-08T19:32:11.303Z,17.30
2018-09-08T19:34:38.733Z,17.20
2018-09-08T19:37:06.189Z,17.10
2018-09-08T19:39:33.670Z,17.10
2018-09-08T19:42:01.006Z,17.10
2018-09-08T19:44:28.518Z,17.00
2018-09-08T19:47:01.622Z,16.90
2018-09-08T19:49:29.179Z,16.80
2018-09-08T19:51:56.667Z,16.80
2018-09-08T19:54:23.969Z,16.80
2018-09-08T19:56:57.069Z,16.70
2018-09-08T19:59:24.455Z,16.60
2018-09-08T20:01:51.865Z,16.60
2018-09-08T20:04:19.847Z,16.40
2018-09-08T20:06:47.351Z,16.30
2018-09-08T20:09:14.715Z,16.10
2018-09-08T20:11:42.142Z,16.00
2018-09-08T20:14:10.250Z,16.00
2018-09-08T20:16:37.669Z,16.00
2018-09-08T20:19:05.009Z,15.90
2018-09-08T20:21:33.178Z,15.90
2018-09-08T20:24:00.542Z,15.90
2018-09-08T20:26:27.988Z,15.90
2018-09-08T20:28:55.370Z,15.90
2018-09-08T20:31:22.761Z,15.90
2018-09-08T20:33:50.172Z,15.80
2018-09-08T20:36:17.629Z,15.80
2018-09-08T20:38:44.955Z,15.90
2018-09-08T20:41:12.414Z,15.80
2018-09-08T20:43:39.797Z,15.70
2018-09-08T20:46:07.222Z,15.60
2018-09-08T20:48:34.657Z,15.70
2018-09-08T20:51:02.360Z,15.70
2018-09-08T20:53:29.742Z,15.60
2018-09-08T20:55:57.185Z,15.50
2018-09-08T20:58:24.550Z,15.50
2018-09-08T21:00:51.919Z,15.50
2018-09-08T21:03:19.563Z,15.50
2018-09-08T21:05:46.960Z,15.50
2018-09-08T21:08:14.351Z,15.50
2018-09-08T21:10:41.741Z,15.50
2018-09-08T21:13:09.215Z,15.60
2018-09-08T21:15:36.571Z,15.60
2018-09-08T21:18:03.935Z,15.60
2018-09-08T21:20:31.450Z,15.60
2018-09-08T21:22:58.802Z,15.50
2018-09-08T21:25:26.252Z,15.40
2018-09-08T21:27:53.631Z,15.30
2018-09-08T21:30:20.957Z,15.20
2018-09-08T21:32:48.433Z,15.30
2018-09-08T21:35:15.734Z,15.20
2018-09-08T21:37:43.170Z,15.20
2018-09-08T21:40:10.478Z,15.30
2018-09-08T21:42:37.883Z,15.30
2018-09-08T21:45:05.802Z,15.30
2018-09-08T21:47:33.185Z,15.20
2018-09-08T21:50:00.546Z,15.20
2018-09-08T21:52:28.069Z,15.20
2018-09-08T21:54:55.413Z,15.10
2018-09-08T21:57:22.804Z,15.00
2018-09-08T21:59:50.285Z,14.90
2018-09-08T22:02:17.731Z,14.90
2018-09-08T22:04:45.196Z,14.80
2018-09-08T22:07:12.899Z,14.90
2018-09-08T22:09:40.312Z,14.90
2018-09-08T22:12:10.081Z,14.90
2018-09-08T22:14:37.535Z,14.90
2018-09-08T22:17:05.378Z,14.90
2018-09-08T22:19:32.779Z,14.90
2018-09-08T22:22:00.103Z,15.00
2018-09-08T22:24:27.442Z,15.00
2018-09-08T22:26:54.812Z,14.90
2018-09-08T22:29:22.309Z,14.90
2018-09-08T22:31:49.695Z,14.90
2018-09-08T22:34:17.146Z,14.80
2018-09-08T22:36:44.542Z,14.80
2018-09-08T22:39:11.983Z,14.70
2018-09-08T22:41:39.418Z,14.70
2018-09-08T22:44:06.846Z,14.50
2018-09-08T22:46:34.242Z,14.40
2018-09-08T22:49:01.689Z,14.30
2018-09-08T22:51:29.126Z,14.30
2018-09-08T22:53:56.458Z,14.20
2018-09-08T22:56:23.854Z,14.00
2018-09-08T22:58:51.280Z,14.00
2018-09-08T23:01:18.778Z,14.10
2018-09-08T23:03:46.207Z,14.10
2018-09-08T23:06:13.563Z,14.00
2018-09-08T23:08:41.065Z,14.00
2018-09-08T23:11:08.458Z,13.90
2018-09-08T23:13:35.856Z,13.80
2018-09-08T23:16:03.314Z,13.80
2018-09-08T23:18:30.734Z,13.80
2018-09-08T23:20:58.149Z,13.80
2018-09-08T23:23:26.321Z,13.80
2018-09-08T23:25:53.766Z,13.70
2018-09-08T23:28:21.208Z,13.70
2018-09-08T23:30:48.663Z,13.70
2018-09-08T23:33:16.086Z,13.60
2018-09-08T23:35:43.498Z,13.60
2018-09-08T23:38:10.922Z,13.40
2018-09-08T23:40:38.324Z,13.30
2018-09-08T23:43:05.653Z,13.30
2018-09-08T23:45:33.141Z,13.20
2018-09-08T23:48:00.476Z,13.00
2018-09-08T23:50:27.941Z,13.00
2018-09-08T23:52:55.302Z,13.00
2018-09-08T23:55:22.738Z,13.00
2018-09-08T23:57:50.216Z,13.00
